createdAt,value
2022-08-10T00:00:33.000Z,287.02
2022-08-10T00:02:00.000Z,287.09
2022-08-10T00:04:06.000Z,287.09
2022-08-10T00:05:33.000Z,287.09
2022-08-10T00:07:56.000Z,287.27
2022-08-10T00:09:22.000Z,287.21
2022-08-10T00:11:28.000Z,287.15
2022-08-10T00:12:55.000Z,287.15
2022-08-10T00:15:01.000Z,287.02
2022-08-10T00:16:28.000Z,286.9
2022-08-10T00:18:34.000Z,286.9
2022-08-10T00:21:25.000Z,286.9
2022-08-10T00:22:52.000Z,286.77
2022-08-10T00:25:02.000Z,286.84
2022-08-10T00:26:28.000Z,286.9
2022-08-10T00:30:07.000Z,287.02
2022-08-10T00:31:34.000Z,287.02
2022-08-10T00:34:03.000Z,286.84
2022-08-10T00:35:29.000Z,286.9
2022-08-10T00:37:35.000Z,286.84
2022-08-10T00:39:02.000Z,286.71
2022-08-10T00:41:08.000Z,286.59
2022-08-10T00:42:35.000Z,286.59
2022-08-10T00:44:41.000Z,286.65
2022-08-10T00:46:07.000Z,286.65
2022-08-10T00:48:13.000Z,286.77
2022-08-10T00:49:40.000Z,286.84
2022-08-10T00:51:46.000Z,286.59
2022-08-10T00:53:13.000Z,286.71
2022-08-10T00:55:19.000Z,286.52
2022-08-10T00:56:46.000Z,286.4
2022-08-10T00:59:22.000Z,286.52
2022-08-10T01:02:14.000Z,286.46
2022-08-10T01:03:40.000Z,286.4
2022-08-10T01:07:05.000Z,286.34
2022-08-10T01:08:31.000Z,286.34
2022-08-10T01:10:37.000Z,286.21
2022-08-10T01:12:04.000Z,286.21
2022-08-10T01:14:45.000Z,286.21
2022-08-10T01:16:11.000Z,286.21
2022-08-10T01:18:18.000Z,286.21
2022-08-10T01:19:44.000Z,286.15
2022-08-10T01:21:50.000Z,286.02
2022-08-10T01:23:21.000Z,285.96
2022-08-10T01:25:27.000Z,285.96
2022-08-10T01:26:54.000Z,285.9
2022-08-10T01:29:00.000Z,286.02
2022-08-10T01:30:27.000Z,286.02
2022-08-10T01:32:33.000Z,285.9
2022-08-10T01:34:00.000Z,285.77
2022-08-10T01:36:07.000Z,285.84
2022-08-10T01:37:33.000Z,285.77
2022-08-10T01:39:39.000Z,285.84
2022-08-10T01:42:31.000Z,285.77
2022-08-10T01:43:57.000Z,285.77
2022-08-10T01:46:07.000Z,285.65
2022-08-10T01:47:34.000Z,285.65
2022-08-10T01:49:40.000Z,285.65
2022-08-10T01:51:07.000Z,285.65
2022-08-10T01:53:13.000Z,285.65
2022-08-10T01:54:40.000Z,285.59
2022-08-10T01:56:46.000Z,285.59
2022-08-10T01:58:12.000Z,285.65
2022-08-10T02:00:19.000Z,285.59
2022-08-10T02:01:45.000Z,285.59
2022-08-10T02:03:51.000Z,285.52
2022-08-10T02:05:29.000Z,285.46
2022-08-10T02:07:35.000Z,285.46
2022-08-10T02:09:03.000Z,285.4
2022-08-10T02:11:11.000Z,285.52
2022-08-10T02:12:37.000Z,285.52
2022-08-10T02:14:43.000Z,285.46
2022-08-10T02:16:10.000Z,285.4
2022-08-10T02:18:16.000Z,285.46
2022-08-10T02:21:07.000Z,285.52
2022-08-10T02:22:34.000Z,285.59
2022-08-10T02:24:50.000Z,285.59
2022-08-10T02:26:16.000Z,285.52
2022-08-10T02:28:22.000Z,285.52
2022-08-10T02:29:53.000Z,285.52
2022-08-10T02:31:59.000Z,285.46
2022-08-10T02:33:28.000Z,285.4
2022-08-10T02:35:34.000Z,285.34
2022-08-10T02:37:20.000Z,285.27
2022-08-10T02:39:26.000Z,285.21
2022-08-10T02:40:52.000Z,285.34
2022-08-10T02:47:29.000Z,285.21
2022-08-10T02:49:16.000Z,285.21
2022-08-10T02:51:23.000Z,285.15
2022-08-10T02:53:33.000Z,285.02
2022-08-10T02:56:00.000Z,284.96
2022-08-10T02:57:27.000Z,284.84
2022-08-10T02:59:33.000Z,284.84
2022-08-10T03:01:04.000Z,284.96
2022-08-10T03:03:11.000Z,284.96
2022-08-10T03:06:02.000Z,284.96
2022-08-10T03:07:29.000Z,284.96
2022-08-10T03:09:48.000Z,284.9
2022-08-10T03:11:15.000Z,284.9
2022-08-10T03:14:42.000Z,284.84
2022-08-10T03:16:08.000Z,284.77
2022-08-10T03:18:14.000Z,284.71
2022-08-10T03:19:41.000Z,284.77
2022-08-10T03:22:40.000Z,284.9
2022-08-10T03:24:06.000Z,284.9
2022-08-10T03:26:37.000Z,284.84
2022-08-10T03:28:03.000Z,284.77
2022-08-10T03:30:09.000Z,284.71
2022-08-10T03:31:58.000Z,284.71
2022-08-10T03:34:04.000Z,284.65
2022-08-10T03:35:46.000Z,284.59
2022-08-10T03:38:49.000Z,284.52
2022-08-10T03:40:15.000Z,284.52
2022-08-10T03:42:21.000Z,284.4
2022-08-10T03:43:48.000Z,284.59
2022-08-10T03:45:54.000Z,284.59
2022-08-10T03:48:45.000Z,284.52
2022-08-10T03:50:14.000Z,284.52
2022-08-10T03:52:56.000Z,284.46
2022-08-10T03:54:22.000Z,284.52
2022-08-10T03:56:29.000Z,284.46
2022-08-10T03:57:57.000Z,284.46
2022-08-10T04:00:03.000Z,284.46
2022-08-10T04:01:29.000Z,284.52
2022-08-10T04:04:51.000Z,284.52
2022-08-10T04:06:17.000Z,284.52
2022-08-10T04:08:24.000Z,284.46
2022-08-10T04:09:50.000Z,284.46
2022-08-10T04:12:00.000Z,284.46
2022-08-10T04:13:26.000Z,284.4
2022-08-10T04:15:32.000Z,284.4
2022-08-10T04:16:59.000Z,284.46
2022-08-10T04:19:05.000Z,284.4
2022-08-10T04:20:31.000Z,284.34
2022-08-10T04:22:39.000Z,284.27
2022-08-10T04:24:05.000Z,284.27
2022-08-10T04:26:11.000Z,284.46
2022-08-10T04:29:03.000Z,284.52
2022-08-10T04:30:29.000Z,284.46
2022-08-10T04:32:35.000Z,284.46
2022-08-10T04:34:02.000Z,284.46
2022-08-10T04:36:13.000Z,284.4
2022-08-10T04:37:39.000Z,284.4
2022-08-10T04:39:51.000Z,284.46
2022-08-10T04:41:17.000Z,284.46
2022-08-10T04:43:24.000Z,284.52
2022-08-10T04:44:50.000Z,284.52
2022-08-10T04:46:56.000Z,284.59
2022-08-10T04:48:24.000Z,284.71
2022-08-10T04:51:05.000Z,284.84
2022-08-10T04:52:34.000Z,284.84
2022-08-10T04:54:41.000Z,284.84
2022-08-10T04:56:07.000Z,284.9
2022-08-10T04:58:13.000Z,284.9
2022-08-10T04:59:40.000Z,284.96
2022-08-10T05:01:46.000Z,284.96
2022-08-10T05:03:56.000Z,285.09
2022-08-10T05:06:43.000Z,285.15
2022-08-10T05:09:34.000Z,285.34
2022-08-10T05:11:29.000Z,285.4
2022-08-10T05:13:35.000Z,285.46
2022-08-10T05:15:02.000Z,285.59
2022-08-10T05:17:08.000Z,285.71
2022-08-10T05:18:34.000Z,285.84
2022-08-10T05:20:40.000Z,285.96
2022-08-10T05:22:11.000Z,286.02
2022-08-10T05:24:17.000Z,286.09
2022-08-10T05:25:47.000Z,286.09
2022-08-10T05:27:54.000Z,286.21
2022-08-10T05:29:22.000Z,286.27
2022-08-10T05:31:28.000Z,286.4
2022-08-10T05:32:54.000Z,286.46
2022-08-10T05:35:07.000Z,286.59
2022-08-10T05:36:34.000Z,286.65
2022-08-10T05:38:40.000Z,286.77
2022-08-10T05:40:07.000Z,286.77
2022-08-10T05:42:13.000Z,286.9
2022-08-10T05:43:39.000Z,286.96
2022-08-10T05:45:45.000Z,287.02
2022-08-10T05:49:10.000Z,287.21
2022-08-10T05:50:36.000Z,287.34
2022-08-10T05:52:42.000Z,287.4
2022-08-10T05:54:09.000Z,287.52
2022-08-10T05:56:15.000Z,287.52
2022-08-10T05:57:41.000Z,287.52
2022-08-10T05:59:47.000Z,287.71
2022-08-10T06:02:00.000Z,287.9
2022-08-10T06:04:38.000Z,288.02
2022-08-10T06:06:05.000Z,288.09
2022-08-10T06:08:11.000Z,288.09
2022-08-10T06:09:38.000Z,288.21
2022-08-10T06:12:03.000Z,288.34
2022-08-10T06:13:53.000Z,288.46
2022-08-10T06:16:16.000Z,288.52
2022-08-10T06:17:43.000Z,288.59
2022-08-10T06:20:03.000Z,288.71
2022-08-10T06:21:29.000Z,288.9
2022-08-10T06:23:35.000Z,289.02
2022-08-10T06:25:02.000Z,289.02
2022-08-10T06:28:16.000Z,289.21
2022-08-10T06:31:07.000Z,289.4
2022-08-10T06:32:33.000Z,289.52
2022-08-10T06:34:40.000Z,289.59
2022-08-10T06:36:06.000Z,289.71
2022-08-10T06:38:13.000Z,289.9
2022-08-10T06:39:39.000Z,289.96
2022-08-10T06:41:45.000Z,290.02
2022-08-10T06:43:41.000Z,290.09
2022-08-10T06:45:47.000Z,290.21
2022-08-10T06:47:32.000Z,290.34
2022-08-10T06:49:38.000Z,290.4
2022-08-10T06:51:05.000Z,290.4
2022-08-10T06:53:11.000Z,290.52
2022-08-10T06:54:37.000Z,290.77
2022-08-10T06:56:43.000Z,290.77
2022-08-10T06:58:41.000Z,290.96
2022-08-10T07:00:47.000Z,290.96
2022-08-10T07:02:14.000Z,291.09
2022-08-10T07:04:20.000Z,291.21
2022-08-10T07:05:57.000Z,291.4
2022-08-10T07:08:04.000Z,291.52
2022-08-10T07:10:55.000Z,291.71
2022-08-10T07:12:22.000Z,291.77
2022-08-10T07:14:28.000Z,291.71
2022-08-10T07:15:54.000Z,291.77
2022-08-10T07:18:04.000Z,291.9
2022-08-10T07:19:32.000Z,291.96
2022-08-10T07:21:54.000Z,292.09
2022-08-10T07:23:22.000Z,292.15
2022-08-10T07:26:04.000Z,292.4
2022-08-10T07:27:30.000Z,292.4
2022-08-10T07:30:05.000Z,292.52
2022-08-10T07:31:32.000Z,292.59
2022-08-10T07:34:01.000Z,292.84
2022-08-10T07:35:28.000Z,292.9
2022-08-10T07:37:45.000Z,292.84
2022-08-10T07:39:12.000Z,292.96
2022-08-10T07:41:18.000Z,292.96
2022-08-10T07:42:45.000Z,292.96
2022-08-10T07:44:51.000Z,293.09
2022-08-10T07:46:18.000Z,293.27
2022-08-10T07:48:24.000Z,293.4
2022-08-10T07:51:15.000Z,293.77
2022-08-10T07:52:42.000Z,293.71
2022-08-10T07:54:48.000Z,293.71
2022-08-10T07:56:15.000Z,293.84
2022-08-10T07:58:51.000Z,293.96
2022-08-10T08:00:18.000Z,294.02
2022-08-10T08:02:24.000Z,294.15
2022-08-10T08:03:51.000Z,294.15
2022-08-10T08:06:14.000Z,294.27
2022-08-10T08:07:41.000Z,294.27
2022-08-10T08:09:47.000Z,294.59
2022-08-10T08:11:22.000Z,294.65
2022-08-10T08:13:30.000Z,294.71
2022-08-10T08:14:57.000Z,294.9
2022-08-10T08:17:03.000Z,294.96
2022-08-10T08:18:29.000Z,295.09
2022-08-10T08:20:40.000Z,295.02
2022-08-10T08:22:10.000Z,295.15
2022-08-10T08:26:37.000Z,295.02
2022-08-10T08:28:03.000Z,295.15
2022-08-10T08:30:10.000Z,295.21
2022-08-10T08:33:01.000Z,295.34
2022-08-10T08:34:27.000Z,295.52
2022-08-10T08:36:34.000Z,295.59
2022-08-10T08:38:00.000Z,295.71
2022-08-10T08:40:38.000Z,295.84
2022-08-10T08:42:05.000Z,295.84
2022-08-10T08:44:11.000Z,296.02
2022-08-10T08:45:37.000Z,296.21
2022-08-10T08:48:05.000Z,296.27
2022-08-10T08:49:31.000Z,296.27
2022-08-10T08:52:13.000Z,296.4
2022-08-10T08:53:43.000Z,296.52
2022-08-10T08:56:07.000Z,296.52
2022-08-10T08:57:34.000Z,296.71
2022-08-10T08:59:54.000Z,296.84
2022-08-10T09:01:21.000Z,296.9
2022-08-10T09:03:41.000Z,297.09
2022-08-10T09:05:08.000Z,297.27
2022-08-10T09:07:14.000Z,297.4
2022-08-10T09:09:26.000Z,297.46
2022-08-10T09:11:33.000Z,297.52
2022-08-10T09:14:24.000Z,297.59
2022-08-10T09:15:51.000Z,297.71
2022-08-10T09:18:04.000Z,297.65
2022-08-10T09:19:30.000Z,297.77
2022-08-10T09:21:40.000Z,297.59
2022-08-10T09:23:37.000Z,297.46
2022-08-10T09:26:09.000Z,297.59
2022-08-10T09:27:36.000Z,297.71
2022-08-10T09:29:43.000Z,297.71
2022-08-10T09:31:09.000Z,297.65
2022-08-10T09:33:27.000Z,297.77
2022-08-10T09:37:51.000Z,298.09
2022-08-10T09:40:07.000Z,298.21
2022-08-10T09:42:25.000Z,298.4
2022-08-10T09:44:32.000Z,298.46
2022-08-10T09:46:22.000Z,298.52
2022-08-10T09:48:31.000Z,298.65
2022-08-10T09:49:58.000Z,298.71
2022-08-10T09:52:09.000Z,298.71
2022-08-10T09:53:35.000Z,298.9
2022-08-10T09:55:41.000Z,298.96
2022-08-10T09:59:09.000Z,299.15
2022-08-10T10:01:25.000Z,299.21
2022-08-10T10:04:08.000Z,299.27
2022-08-10T10:05:35.000Z,299.27
2022-08-10T10:07:41.000Z,299.34
2022-08-10T10:09:07.000Z,299.27
2022-08-10T10:11:15.000Z,299.27
2022-08-10T10:12:41.000Z,299.46
2022-08-10T10:14:47.000Z,299.46
2022-08-10T10:16:14.000Z,299.59
2022-08-10T10:18:20.000Z,299.71
2022-08-10T10:19:46.000Z,299.9
2022-08-10T10:21:53.000Z,299.9
2022-08-10T10:23:21.000Z,299.9
2022-08-10T10:25:27.000Z,300.02
2022-08-10T10:27:16.000Z,299.96
2022-08-10T10:29:22.000Z,299.65
2022-08-10T10:31:23.000Z,299.46
2022-08-10T10:33:29.000Z,299.59
2022-08-10T10:34:56.000Z,299.77
2022-08-10T10:37:02.000Z,300.02
2022-08-10T10:39:53.000Z,300.09
2022-08-10T10:41:19.000Z,300.21
2022-08-10T10:43:25.000Z,300.34
2022-08-10T10:44:52.000Z,300.21
2022-08-10T10:46:58.000Z,300.21
2022-08-10T10:48:25.000Z,300.27
2022-08-10T10:50:33.000Z,300.4
2022-08-10T10:52:00.000Z,300.46
2022-08-10T10:54:06.000Z,300.65
2022-08-10T10:55:33.000Z,300.59
2022-08-10T10:58:18.000Z,300.4
2022-08-10T10:59:48.000Z,300.4
2022-08-10T11:02:01.000Z,300.59
2022-08-10T11:03:28.000Z,300.71
2022-08-10T11:05:34.000Z,300.77
2022-08-10T11:07:00.000Z,300.71
2022-08-10T11:09:06.000Z,300.65
2022-08-10T11:10:36.000Z,300.59
2022-08-10T11:12:51.000Z,300.71
2022-08-10T11:14:19.000Z,300.96
2022-08-10T11:16:32.000Z,300.9
2022-08-10T11:19:24.000Z,300.65
2022-08-10T11:21:25.000Z,300.71
2022-08-10T11:23:31.000Z,300.59
2022-08-10T11:24:58.000Z,300.52
2022-08-10T11:27:04.000Z,300.65
2022-08-10T11:28:31.000Z,300.71
2022-08-10T11:30:41.000Z,300.84
2022-08-10T11:32:07.000Z,301.02
2022-08-10T11:34:25.000Z,300.96
2022-08-10T11:36:12.000Z,301.02
2022-08-10T11:38:18.000Z,301.15
2022-08-10T11:40:01.000Z,301.34
2022-08-10T11:42:07.000Z,301.4
2022-08-10T11:43:43.000Z,301.4
2022-08-10T11:45:49.000Z,300.96
2022-08-10T11:47:19.000Z,301.02
2022-08-10T11:49:26.000Z,301.15
2022-08-10T11:50:52.000Z,300.9
2022-08-10T11:52:58.000Z,300.9
2022-08-10T11:54:25.000Z,300.84
2022-08-10T11:56:31.000Z,300.77
2022-08-10T11:59:22.000Z,300.96
2022-08-10T12:00:49.000Z,300.84
2022-08-10T12:02:55.000Z,301.02
2022-08-10T12:04:22.000Z,301.15
2022-08-10T12:06:28.000Z,301.34
2022-08-10T12:08:18.000Z,301.52
2022-08-10T12:12:12.000Z,301.65
2022-08-10T12:13:38.000Z,301.71
2022-08-10T12:16:02.000Z,301.65
2022-08-10T12:17:30.000Z,301.71
2022-08-10T12:19:36.000Z,301.77
2022-08-10T12:21:27.000Z,301.4
2022-08-10T12:23:34.000Z,301.59
2022-08-10T12:25:04.000Z,301.77
2022-08-10T12:27:10.000Z,301.71
2022-08-10T12:28:37.000Z,301.65
2022-08-10T12:30:55.000Z,301.77
2022-08-10T12:32:22.000Z,301.77
2022-08-10T12:34:30.000Z,302.15
2022-08-10T12:35:56.000Z,302.21
2022-08-10T12:38:22.000Z,302.21
2022-08-10T12:41:13.000Z,302.4
2022-08-10T12:42:40.000Z,302.27
2022-08-10T12:44:46.000Z,302.27
2022-08-10T12:46:12.000Z,302.34
2022-08-10T12:48:19.000Z,302.09
2022-08-10T12:49:45.000Z,302.15
2022-08-10T12:52:35.000Z,302.15
2022-08-10T12:54:02.000Z,301.84
2022-08-10T12:56:08.000Z,302.02
2022-08-10T12:57:35.000Z,302.09
2022-08-10T12:59:41.000Z,302.27
2022-08-10T13:01:08.000Z,302.34
2022-08-10T13:04:53.000Z,302.34
2022-08-10T13:07:05.000Z,302.02
2022-08-10T13:08:32.000Z,302.02
2022-08-10T13:10:38.000Z,302.21
2022-08-10T13:12:04.000Z,302.27
2022-08-10T13:14:44.000Z,302.46
2022-08-10T13:16:10.000Z,302.59
2022-08-10T13:18:16.000Z,302.65
2022-08-10T13:19:44.000Z,302.84
2022-08-10T13:22:00.000Z,302.84
2022-08-10T13:23:27.000Z,302.84
2022-08-10T13:25:33.000Z,302.9
2022-08-10T13:27:00.000Z,302.84
2022-08-10T13:29:31.000Z,302.4
2022-08-10T13:31:01.000Z,302.46
2022-08-10T13:33:07.000Z,302.84
2022-08-10T13:34:33.000Z,302.96
2022-08-10T13:36:48.000Z,303.15
2022-08-10T13:38:15.000Z,303.02
2022-08-10T13:40:21.000Z,303.02
2022-08-10T13:41:48.000Z,303.02
2022-08-10T13:43:54.000Z,303.27
2022-08-10T13:46:45.000Z,303.21
2022-08-10T13:48:11.000Z,303.21
2022-08-10T13:50:18.000Z,303.52
2022-08-10T13:51:44.000Z,303.59
2022-08-10T13:54:02.000Z,303.46
2022-08-10T13:55:28.000Z,303.59
2022-08-10T13:57:59.000Z,303.52
2022-08-10T13:59:26.000Z,303.4
2022-08-10T14:02:41.000Z,303.65
2022-08-10T14:04:07.000Z,303.65
2022-08-10T14:06:13.000Z,303.52
2022-08-10T14:07:40.000Z,303.4
2022-08-10T14:10:05.000Z,303.65
2022-08-10T14:11:32.000Z,303.9
2022-08-10T14:13:38.000Z,303.77
2022-08-10T14:15:05.000Z,303.59
2022-08-10T14:17:11.000Z,303.52
2022-08-10T14:18:42.000Z,303.46
2022-08-10T14:20:48.000Z,303.71
2022-08-10T14:22:14.000Z,303.77
2022-08-10T14:24:23.000Z,303.71
2022-08-10T14:27:15.000Z,303.71
2022-08-10T14:28:41.000Z,303.59
2022-08-10T14:30:47.000Z,303.4
2022-08-10T14:32:14.000Z,303.59
2022-08-10T14:34:20.000Z,303.65
2022-08-10T14:37:40.000Z,303.77
2022-08-10T14:39:46.000Z,303.84
2022-08-10T14:41:13.000Z,303.9
2022-08-10T14:44:06.000Z,304.09
2022-08-10T14:45:33.000Z,304.09
2022-08-10T14:47:39.000Z,304.15
2022-08-10T14:49:23.000Z,303.84
2022-08-10T14:51:31.000Z,303.77
2022-08-10T14:53:09.000Z,304.09
2022-08-10T14:55:15.000Z,304.09
2022-08-10T14:56:44.000Z,304.27
2022-08-10T14:58:53.000Z,304.27
2022-08-10T15:00:31.000Z,304.09
2022-08-10T15:02:46.000Z,304.15
2022-08-10T15:04:17.000Z,304.15
2022-08-10T15:06:24.000Z,304.27
2022-08-10T15:09:20.000Z,304.15
2022-08-10T15:10:47.000Z,303.77
2022-08-10T15:12:55.000Z,304.02
2022-08-10T15:14:23.000Z,304.15
2022-08-10T15:16:48.000Z,304.27
2022-08-10T15:18:15.000Z,304.21
2022-08-10T15:20:21.000Z,304.34
2022-08-10T15:21:48.000Z,304.46
2022-08-10T15:24:10.000Z,304.4
2022-08-10T15:25:36.000Z,304.46
2022-08-10T15:27:43.000Z,304.59
2022-08-10T15:29:19.000Z,304.59
2022-08-10T15:31:29.000Z,304.59
2022-08-10T15:32:56.000Z,304.52
2022-08-10T15:35:02.000Z,304.46
2022-08-10T15:36:30.000Z,304.52
2022-08-10T15:38:36.000Z,304.52
2022-08-10T15:40:02.000Z,304.46
2022-08-10T15:42:30.000Z,304.27
2022-08-10T15:43:57.000Z,304.15
2022-08-10T15:46:03.000Z,303.96
2022-08-10T15:48:55.000Z,304.09
2022-08-10T15:50:21.000Z,303.65
2022-08-10T15:52:28.000Z,303.71
2022-08-10T15:54:25.000Z,303.96
2022-08-10T15:56:38.000Z,304.02
2022-08-10T15:58:04.000Z,303.96
2022-08-10T16:00:11.000Z,304.15
2022-08-10T16:01:37.000Z,304.09
2022-08-10T16:04:20.000Z,303.96
2022-08-10T16:05:56.000Z,303.96
2022-08-10T16:08:07.000Z,304.02
2022-08-10T16:09:34.000Z,304.21
2022-08-10T16:12:31.000Z,304.02
2022-08-10T16:13:58.000Z,304.21
2022-08-10T16:16:05.000Z,304.27
2022-08-10T16:17:32.000Z,304.21
2022-08-10T16:20:00.000Z,303.96
2022-08-10T16:21:26.000Z,303.96
2022-08-10T16:23:32.000Z,304.15
2022-08-10T16:24:59.000Z,304.09
2022-08-10T16:27:05.000Z,303.9
2022-08-10T16:29:56.000Z,303.9
2022-08-10T16:31:23.000Z,303.96
2022-08-10T16:33:29.000Z,303.84
2022-08-10T16:35:19.000Z,303.84
2022-08-10T16:37:25.000Z,303.65
2022-08-10T16:39:21.000Z,303.46
2022-08-10T16:42:03.000Z,303.4
2022-08-10T16:43:30.000Z,303.27
2022-08-10T16:45:36.000Z,303.46
2022-08-10T16:47:03.000Z,303.4
2022-08-10T16:49:09.000Z,303.27
2022-08-10T16:50:36.000Z,303.27
2022-08-10T16:52:42.000Z,303.15
2022-08-10T16:54:08.000Z,303.15
2022-08-10T16:56:15.000Z,303.15
2022-08-10T16:57:41.000Z,303.15
2022-08-10T16:59:47.000Z,303.21
2022-08-10T17:01:14.000Z,303.34
2022-08-10T17:03:20.000Z,303.27
2022-08-10T17:05:33.000Z,303.34
2022-08-10T17:08:16.000Z,303.09
2022-08-10T17:11:07.000Z,302.96
2022-08-10T17:12:38.000Z,302.96
2022-08-10T17:14:44.000Z,302.84
2022-08-10T17:16:24.000Z,302.9
2022-08-10T17:18:30.000Z,302.77
2022-08-10T17:19:56.000Z,302.71
2022-08-10T17:22:36.000Z,302.71
2022-08-10T17:24:02.000Z,302.71
2022-08-10T17:26:09.000Z,302.52
2022-08-10T17:27:37.000Z,302.27
2022-08-10T17:30:12.000Z,302.02
2022-08-10T17:31:40.000Z,301.96
2022-08-10T17:33:59.000Z,301.9
2022-08-10T17:35:25.000Z,301.9
2022-08-10T17:37:31.000Z,301.71
2022-08-10T17:38:58.000Z,301.59
2022-08-10T17:41:04.000Z,301.4
2022-08-10T17:42:31.000Z,301.34
2022-08-10T17:44:37.000Z,301.27
2022-08-10T17:46:03.000Z,301.15
2022-08-10T17:48:10.000Z,301.09
2022-08-10T17:51:01.000Z,300.84
2022-08-10T17:52:28.000Z,300.71
2022-08-10T17:54:34.000Z,300.65
2022-08-10T17:56:00.000Z,300.52
2022-08-10T17:58:06.000Z,300.46
2022-08-10T17:59:33.000Z,300.46
2022-08-10T18:01:39.000Z,300.34
2022-08-10T18:03:25.000Z,300.21
2022-08-10T18:05:32.000Z,300.09
2022-08-10T18:06:58.000Z,300.02
2022-08-10T18:09:04.000Z,299.96
2022-08-10T18:10:31.000Z,299.96
2022-08-10T18:12:37.000Z,299.84
2022-08-10T18:14:04.000Z,299.9
2022-08-10T18:16:10.000Z,299.84
2022-08-10T18:17:36.000Z,299.84
2022-08-10T18:19:43.000Z,299.77
2022-08-10T18:21:10.000Z,299.77
2022-08-10T18:23:16.000Z,299.52
2022-08-10T18:24:43.000Z,299.34
2022-08-10T18:26:49.000Z,299.34
2022-08-10T18:29:40.000Z,299.27
2022-08-10T18:31:07.000Z,299.27
2022-08-10T18:33:13.000Z,299.02
2022-08-10T18:34:39.000Z,299.09
2022-08-10T18:36:46.000Z,299.09
2022-08-10T18:38:12.000Z,299.02
2022-08-10T18:40:18.000Z,298.9
2022-08-10T18:41:59.000Z,298.9
2022-08-10T18:44:10.000Z,298.71
2022-08-10T18:45:37.000Z,298.71
2022-08-10T18:47:43.000Z,298.71
2022-08-10T18:49:24.000Z,298.59
2022-08-10T18:51:30.000Z,298.46
2022-08-10T18:53:11.000Z,298.46
2022-08-10T18:55:17.000Z,298.34
2022-08-10T18:56:49.000Z,298.34
2022-08-10T18:58:55.000Z,298.27
2022-08-10T19:00:27.000Z,298.09
2022-08-10T19:02:33.000Z,298.02
2022-08-10T19:03:59.000Z,298.02
2022-08-10T19:06:06.000Z,297.9
2022-08-10T19:08:57.000Z,297.9
2022-08-10T19:10:23.000Z,297.84
2022-08-10T19:12:29.000Z,297.77
2022-08-10T19:13:56.000Z,297.77
2022-08-10T19:16:02.000Z,297.71
2022-08-10T19:17:29.000Z,297.71
2022-08-10T19:20:11.000Z,297.59
2022-08-10T19:21:37.000Z,297.46
2022-08-10T19:23:44.000Z,297.34
2022-08-10T19:25:10.000Z,297.4
2022-08-10T19:27:16.000Z,297.34
2022-08-10T19:28:43.000Z,297.09
2022-08-10T19:30:49.000Z,296.84
2022-08-10T19:32:16.000Z,296.65
2022-08-10T19:34:22.000Z,296.46
2022-08-10T19:35:49.000Z,296.4
2022-08-10T19:38:08.000Z,296.21
2022-08-10T19:39:41.000Z,296.15
2022-08-10T19:41:55.000Z,295.96
2022-08-10T19:43:35.000Z,295.65
2022-08-10T19:46:06.000Z,295.4
2022-08-10T19:48:57.000Z,295.34
2022-08-10T19:50:23.000Z,295.15
2022-08-10T19:52:30.000Z,295.09
2022-08-10T19:53:56.000Z,294.9
2022-08-10T19:56:02.000Z,294.59
2022-08-10T19:57:55.000Z,294.52
2022-08-10T20:00:01.000Z,294.65
2022-08-10T20:01:45.000Z,294.65
2022-08-10T20:04:00.000Z,294.4
2022-08-10T20:05:27.000Z,294.09
2022-08-10T20:07:33.000Z,293.84
2022-08-10T20:08:59.000Z,293.71
2022-08-10T20:11:06.000Z,293.59
2022-08-10T20:12:32.000Z,293.71
2022-08-10T20:14:38.000Z,293.71
2022-08-10T20:16:05.000Z,293.84
2022-08-10T20:18:11.000Z,293.96
2022-08-10T20:19:38.000Z,293.52
2022-08-10T20:21:59.000Z,293.4
2022-08-10T20:23:25.000Z,293.27
2022-08-10T20:25:31.000Z,292.96
2022-08-10T20:28:22.000Z,292.71
2022-08-10T20:29:53.000Z,292.71
2022-08-10T20:32:03.000Z,292.65
2022-08-10T20:33:29.000Z,292.59
2022-08-10T20:35:36.000Z,292.65
2022-08-10T20:37:02.000Z,292.52
2022-08-10T20:39:08.000Z,292.46
2022-08-10T20:40:35.000Z,292.4
2022-08-10T20:42:41.000Z,292.4
2022-08-10T20:44:08.000Z,292.34
2022-08-10T20:46:14.000Z,292.4
2022-08-10T20:47:40.000Z,292.46
2022-08-10T20:49:58.000Z,292.46
2022-08-10T20:51:25.000Z,292.4
2022-08-10T20:54:03.000Z,292.15
2022-08-10T20:55:30.000Z,292.02
2022-08-10T20:57:53.000Z,292.09
2022-08-10T20:59:22.000Z,292.02
2022-08-10T21:01:37.000Z,292.15
2022-08-10T21:03:38.000Z,291.96
2022-08-10T21:05:48.000Z,291.65
2022-08-10T21:08:41.000Z,291.71
2022-08-10T21:10:08.000Z,291.59
2022-08-10T21:12:14.000Z,291.59
2022-08-10T21:13:41.000Z,291.59
2022-08-10T21:15:47.000Z,291.4
2022-08-10T21:17:14.000Z,291.65
2022-08-10T21:19:21.000Z,291.4
2022-08-10T21:20:48.000Z,291.27
2022-08-10T21:22:58.000Z,291.34
2022-08-10T21:24:29.000Z,291.21
2022-08-10T21:26:37.000Z,291.27
2022-08-10T21:28:04.000Z,291.02
2022-08-10T21:30:10.000Z,290.9
2022-08-10T21:31:36.000Z,290.77
2022-08-10T21:33:45.000Z,290.71
2022-08-10T21:35:13.000Z,290.77
2022-08-10T21:37:41.000Z,290.65
2022-08-10T21:39:07.000Z,290.65
2022-08-10T21:41:14.000Z,290.52
2022-08-10T21:42:43.000Z,290.4
2022-08-10T21:44:50.000Z,290.4
2022-08-10T21:47:43.000Z,290.46
2022-08-10T21:49:31.000Z,290.4
2022-08-10T21:51:41.000Z,290.15
2022-08-10T21:53:28.000Z,290.21
2022-08-10T21:55:48.000Z,290.09
2022-08-10T21:57:22.000Z,289.96
2022-08-10T22:01:01.000Z,289.84
2022-08-10T22:02:01.000Z,289.9
2022-08-10T22:03:28.000Z,289.96
2022-08-10T22:05:44.000Z,289.96
2022-08-10T22:07:11.000Z,289.96
2022-08-10T22:09:18.000Z,289.96
2022-08-10T22:10:44.000Z,289.84
2022-08-10T22:12:51.000Z,289.77
2022-08-10T22:14:18.000Z,289.84
2022-08-10T22:16:29.000Z,289.77
2022-08-10T22:17:56.000Z,289.77
2022-08-10T22:20:09.000Z,289.46
2022-08-10T22:21:35.000Z,289.34
2022-08-10T22:23:49.000Z,289.21
2022-08-10T22:25:16.000Z,289.15
2022-08-10T22:27:22.000Z,289.02
2022-08-10T22:30:31.000Z,289.15
2022-08-10T22:31:59.000Z,289.02
2022-08-10T22:34:08.000Z,289.09
2022-08-10T22:35:35.000Z,289.02
2022-08-10T22:37:42.000Z,288.77
2022-08-10T22:39:08.000Z,288.71
2022-08-10T22:41:14.000Z,288.77
2022-08-10T22:42:41.000Z,288.77
2022-08-10T22:45:14.000Z,288.77
2022-08-10T22:46:43.000Z,288.77
2022-08-10T22:48:50.000Z,288.65
2022-08-10T22:50:16.000Z,288.71
2022-08-10T22:52:22.000Z,288.71
2022-08-10T22:53:49.000Z,288.65
2022-08-10T22:55:55.000Z,288.65
2022-08-10T22:57:21.000Z,288.59
2022-08-10T22:59:28.000Z,288.46
2022-08-10T23:00:54.000Z,288.46
2022-08-10T23:03:00.000Z,288.46
2022-08-10T23:04:27.000Z,288.4
2022-08-10T23:06:39.000Z,288.27
2022-08-10T23:09:31.000Z,288.27
2022-08-10T23:10:57.000Z,288.21
2022-08-10T23:13:03.000Z,288.21
2022-08-10T23:14:30.000Z,288.21
2022-08-10T23:16:36.000Z,288.15
2022-08-10T23:18:02.000Z,288.15
2022-08-10T23:20:09.000Z,288.21
2022-08-10T23:21:35.000Z,288.15
2022-08-10T23:24:09.000Z,288.09
2022-08-10T23:25:35.000Z,288.15
2022-08-10T23:27:47.000Z,288.02
2022-08-10T23:29:19.000Z,287.96
2022-08-10T23:31:27.000Z,287.9
2022-08-10T23:33:31.000Z,287.77
2022-08-10T23:35:42.000Z,287.9
2022-08-10T23:37:57.000Z,287.96
2022-08-10T23:40:03.000Z,287.96
2022-08-10T23:41:30.000Z,287.9
2022-08-10T23:43:36.000Z,287.84
2022-08-10T23:45:28.000Z,287.71
2022-08-10T23:47:58.000Z,287.71
2022-08-10T23:50:49.000Z,287.59
2022-08-10T23:52:23.000Z,287.52
2022-08-10T23:54:29.000Z,287.46
2022-08-10T23:55:55.000Z,287.46
2022-08-10T23:58:02.000Z,287.34
2022-08-10T23:59:28.000Z,287.4
